createdAt,value
2018-05-16T00:00:35.388Z,21.73
2018-05-16T00:03:06.864Z,18.48
2018-05-16T00:05:38.416Z,21.42
2018-05-16T00:08:08.439Z,21.75
2018-05-16T00:10:38.957Z,25.15
2018-05-16T00:13:08.972Z,20.12
2018-05-16T00:15:40.315Z,20.65
2018-05-16T00:18:10.538Z,23.55
2018-05-16T00:20:40.972Z,21.05
2018-05-16T00:23:11.800Z,24.75
2018-05-16T00:25:43.627Z,22.80
2018-05-16T00:28:14.704Z,21.25
2018-05-16T00:30:44.885Z,20.98
2018-05-16T00:33:16.362Z,24.40
2018-05-16T00:35:48.443Z,24.50
2018-05-16T00:38:20.179Z,27.03
2018-05-16T00:40:51.753Z,23.03
2018-05-16T00:43:23.273Z,23.47
2018-05-16T00:45:54.200Z,26.25
2018-05-16T00:48:25.119Z,23.75
2018-05-16T00:51:33.625Z,21.27
2018-05-16T00:54:03.694Z,24.40
2018-05-16T00:56:34.169Z,25.47
2018-05-16T00:59:04.291Z,27.73
2018-05-16T01:01:34.190Z,26.73
2018-05-16T01:04:05.527Z,26.17
2018-05-16T01:06:35.954Z,29.73
2018-05-16T01:09:09.361Z,22.70
2018-05-16T01:11:39.053Z,24.37
2018-05-16T01:14:10.054Z,25.67
2018-05-16T01:16:41.674Z,24.52
2018-05-16T01:19:13.255Z,23.60
2018-05-16T01:21:44.034Z,27.97
2018-05-16T01:24:14.811Z,23.03
2018-05-16T01:26:44.770Z,24.93
2018-05-16T01:29:16.134Z,26.75
2018-05-16T01:31:46.429Z,26.00
2018-05-16T01:34:17.940Z,25.20
2018-05-16T01:36:49.395Z,22.17
2018-05-16T01:39:20.917Z,26.70
2018-05-16T01:41:52.600Z,27.57
2018-05-16T01:44:24.064Z,26.27
2018-05-16T01:46:54.055Z,27.53
2018-05-16T01:49:25.711Z,27.60
2018-05-16T01:51:56.926Z,29.87
2018-05-16T01:54:26.879Z,30.13
2018-05-16T01:56:56.917Z,26.17
2018-05-16T01:59:27.785Z,26.75
2018-05-16T02:01:57.014Z,28.80
2018-05-16T02:04:27.015Z,27.63
2018-05-16T02:06:58.480Z,30.97
2018-05-16T02:09:30.069Z,28.13
2018-05-16T02:12:01.525Z,31.73
2018-05-16T02:14:33.140Z,30.58
2018-05-16T02:17:04.307Z,30.15
2018-05-16T02:19:35.252Z,30.47
2018-05-16T02:22:05.033Z,30.03
2018-05-16T02:24:36.949Z,32.20
2018-05-16T02:27:08.908Z,27.87
2018-05-16T02:29:40.284Z,30.02
2018-05-16T02:32:11.591Z,29.65
2018-05-16T02:34:43.139Z,29.03
2018-05-16T02:37:13.797Z,29.40
2018-05-16T02:39:45.805Z,32.45
2018-05-16T02:42:16.028Z,27.97
2018-05-16T02:44:46.063Z,30.27
2018-05-16T02:47:16.262Z,27.50
2018-05-16T02:49:46.183Z,30.43
2018-05-16T02:52:16.190Z,28.10
2018-05-16T02:54:47.658Z,28.23
2018-05-16T02:57:18.962Z,27.55
2018-05-16T02:59:50.859Z,32.97
2018-05-16T03:02:22.502Z,27.47
2018-05-16T03:04:53.971Z,25.50
2018-05-16T03:07:24.070Z,26.35
2018-05-16T03:09:55.453Z,27.93
2018-05-16T03:12:25.635Z,24.63
2018-05-16T03:14:57.080Z,25.17
2018-05-16T03:17:27.709Z,28.13
2018-05-16T03:19:58.964Z,25.77
2018-05-16T03:22:28.458Z,25.12
2018-05-16T03:25:00.105Z,24.87
2018-05-16T03:27:31.535Z,29.58
2018-05-16T03:30:02.304Z,24.33
2018-05-16T03:32:33.835Z,33.30
2018-05-16T03:35:03.753Z,24.60
2018-05-16T03:37:35.559Z,24.20
2018-05-16T03:40:07.026Z,29.27
2018-05-16T03:42:38.410Z,25.23
2018-05-16T03:45:09.816Z,23.90
2018-05-16T03:47:41.339Z,25.67
2018-05-16T03:50:11.446Z,22.87
2018-05-16T03:52:41.396Z,25.23
2018-05-16T03:55:11.372Z,23.37
2018-05-16T03:58:29.972Z,26.73
2018-05-16T04:01:41.552Z,23.62
2018-05-16T04:04:19.357Z,23.62
2018-05-16T04:06:50.886Z,24.73
2018-05-16T04:09:22.202Z,27.60
2018-05-16T04:11:53.694Z,19.13
2018-05-16T04:14:23.804Z,21.73
2018-05-16T04:16:55.327Z,22.73
2018-05-16T04:19:25.335Z,26.17
2018-05-16T04:21:55.466Z,22.20
2018-05-16T04:24:26.730Z,24.15
2018-05-16T04:26:56.671Z,26.20
2018-05-16T04:29:28.979Z,23.40
2018-05-16T04:31:58.925Z,21.98
2018-05-16T04:34:30.450Z,21.75
2018-05-16T04:36:59.901Z,19.50
2018-05-16T04:39:31.282Z,23.38
2018-05-16T04:42:02.805Z,22.35
2018-05-16T04:44:32.937Z,23.45
2018-05-16T04:47:04.362Z,21.00
2018-05-16T04:49:35.011Z,20.40
2018-05-16T04:52:05.023Z,20.45
2018-05-16T04:54:35.692Z,21.27
2018-05-16T04:57:05.788Z,21.95
2018-05-16T04:59:37.956Z,22.48
2018-05-16T05:02:08.872Z,18.50
2018-05-16T05:04:39.498Z,25.65
2018-05-16T05:07:08.708Z,23.05
2018-05-16T05:09:40.179Z,18.85
2018-05-16T05:12:11.698Z,22.95
2018-05-16T05:14:41.717Z,23.65
2018-05-16T05:17:13.248Z,17.48
2018-05-16T05:19:43.204Z,21.00
2018-05-16T05:22:14.739Z,17.42
2018-05-16T05:24:46.230Z,17.20
2018-05-16T05:27:16.750Z,18.95
2018-05-16T05:29:48.411Z,18.02
2018-05-16T05:32:19.403Z,20.75
2018-05-16T05:34:51.402Z,19.12
2018-05-16T05:37:22.827Z,18.75
2018-05-16T05:39:54.189Z,14.93
2018-05-16T05:42:25.533Z,15.85
2018-05-16T05:44:57.316Z,18.87
2018-05-16T05:47:28.706Z,17.55
2018-05-16T05:49:58.705Z,17.50
2018-05-16T05:52:30.201Z,17.02
2018-05-16T05:55:00.192Z,18.77
2018-05-16T05:57:31.126Z,18.17
2018-05-16T06:00:01.867Z,16.67
2018-05-16T06:02:32.355Z,19.17
2018-05-16T06:05:03.716Z,20.85
2018-05-16T06:07:35.137Z,16.33
2018-05-16T06:10:06.716Z,16.60
2018-05-16T06:12:36.725Z,15.93
2018-05-16T06:15:08.540Z,17.50
2018-05-16T06:17:40.045Z,21.20
2018-05-16T06:20:11.386Z,20.05
2018-05-16T06:22:42.975Z,14.35
2018-05-16T06:25:14.334Z,18.98
2018-05-16T06:27:44.459Z,18.15
2018-05-16T06:30:14.673Z,16.05
2018-05-16T06:32:44.654Z,19.75
2018-05-16T06:35:16.083Z,21.23
2018-05-16T06:37:47.355Z,18.17
2018-05-16T06:40:17.581Z,18.27
2018-05-16T06:42:47.671Z,21.17
2018-05-16T06:45:16.969Z,18.83
2018-05-16T06:47:47.055Z,20.77
2018-05-16T06:50:16.512Z,21.15
2018-05-16T06:52:46.605Z,21.00
2018-05-16T06:55:16.819Z,21.60
2018-05-16T06:57:48.116Z,20.95
2018-05-16T07:00:19.848Z,21.77
2018-05-16T07:02:51.215Z,19.75
2018-05-16T07:05:22.757Z,20.20
2018-05-16T07:07:54.422Z,21.50
2018-05-16T07:10:26.444Z,20.33
2018-05-16T07:12:57.986Z,23.08
2018-05-16T07:15:27.921Z,22.75
2018-05-16T07:17:59.043Z,22.65
2018-05-16T07:20:29.660Z,21.98
2018-05-16T07:23:01.030Z,23.90
2018-05-16T07:25:32.833Z,24.05
2018-05-16T07:28:02.962Z,20.10
2018-05-16T07:30:33.028Z,24.05
2018-05-16T07:33:04.360Z,26.17
2018-05-16T07:35:36.118Z,22.67
2018-05-16T07:38:06.109Z,21.60
2018-05-16T07:40:37.536Z,26.87
2018-05-16T07:43:09.024Z,23.80
2018-05-16T07:45:40.576Z,21.70
2018-05-16T07:48:10.515Z,26.58
2018-05-16T07:50:39.919Z,28.08
2018-05-16T07:53:11.360Z,27.17
2018-05-16T07:55:42.793Z,29.12
2018-05-16T07:58:12.765Z,25.40
2018-05-16T08:00:42.519Z,24.65
2018-05-16T08:03:12.429Z,30.55
2018-05-16T08:05:42.457Z,27.25
2018-05-16T08:08:12.409Z,31.33
2018-05-16T08:10:44.106Z,27.48
2018-05-16T08:13:14.132Z,29.80
2018-05-16T08:15:43.873Z,32.97
2018-05-16T08:18:14.455Z,32.75
2018-05-16T08:20:44.597Z,35.80
2018-05-16T08:23:14.079Z,28.12
2018-05-16T08:25:45.490Z,31.25
2018-05-16T08:28:17.139Z,35.60
2018-05-16T08:30:47.162Z,31.90
2018-05-16T08:33:18.613Z,31.10
2018-05-16T08:35:49.478Z,29.70
2018-05-16T08:38:19.639Z,29.63
2018-05-16T08:40:50.248Z,34.05
2018-05-16T08:43:21.712Z,31.02
2018-05-16T08:45:53.560Z,40.25
2018-05-16T08:48:24.916Z,32.45
2018-05-16T08:50:56.771Z,29.85
2018-05-16T08:53:28.800Z,31.60
2018-05-16T08:55:58.624Z,37.13
2018-05-16T08:58:30.047Z,29.37
2018-05-16T09:01:00.058Z,30.17
2018-05-16T09:03:31.448Z,24.70
2018-05-16T09:06:02.938Z,29.45
2018-05-16T09:08:33.858Z,29.75
2018-05-16T09:11:04.854Z,28.73
2018-05-16T09:13:34.102Z,32.40
2018-05-16T09:16:05.550Z,28.15
2018-05-16T09:18:36.924Z,31.02
2018-05-16T09:21:07.799Z,30.83
2018-05-16T09:23:39.286Z,30.08
2018-05-16T09:26:10.572Z,35.15
2018-05-16T09:28:41.104Z,35.15
2018-05-16T09:31:11.103Z,27.95
2018-05-16T09:33:41.075Z,29.45
2018-05-16T09:36:13.176Z,30.60
2018-05-16T09:38:43.194Z,32.08
2018-05-16T09:41:14.605Z,31.58
2018-05-16T09:43:46.191Z,33.90
2018-05-16T09:46:16.233Z,31.87
2018-05-16T09:48:47.688Z,29.73
2018-05-16T09:51:19.298Z,21.85
2018-05-16T09:53:50.984Z,25.67
2018-05-16T09:56:24.700Z,22.70
2018-05-16T09:58:55.011Z,23.65
2018-05-16T10:01:24.936Z,30.05
2018-05-16T10:03:55.763Z,22.98
2018-05-16T10:06:27.176Z,24.02
2018-05-16T10:08:58.814Z,20.00
2018-05-16T10:11:29.731Z,21.92
2018-05-16T10:14:00.505Z,22.10
2018-05-16T10:16:31.833Z,19.60
2018-05-16T10:19:03.448Z,18.25
2018-05-16T10:21:34.771Z,21.87
2018-05-16T10:24:06.163Z,19.12
2018-05-16T10:26:35.253Z,21.12
2018-05-16T10:29:06.635Z,20.70
2018-05-16T10:31:36.572Z,17.70
2018-05-16T10:34:05.727Z,19.67
2018-05-16T10:36:37.145Z,19.20
2018-05-16T10:39:07.778Z,20.67
2018-05-16T10:41:38.612Z,21.55
2018-05-16T10:44:09.901Z,22.37
2018-05-16T10:46:39.765Z,23.92
2018-05-16T10:49:11.123Z,23.73
2018-05-16T10:51:41.960Z,27.17
2018-05-16T10:54:13.537Z,22.58
2018-05-16T10:56:44.493Z,23.65
2018-05-16T10:59:15.586Z,22.02
2018-05-16T11:01:45.497Z,25.10
2018-05-16T11:04:16.966Z,22.45
2018-05-16T11:06:48.428Z,19.85
2018-05-16T11:09:19.835Z,20.50
2018-05-16T11:11:49.775Z,23.25
2018-05-16T11:14:20.385Z,20.25
2018-05-16T11:16:51.729Z,20.75
2018-05-16T11:19:21.647Z,19.52
2018-05-16T11:21:53.996Z,19.70
2018-05-16T11:24:25.319Z,19.42
2018-05-16T11:26:56.833Z,28.58
2018-05-16T11:29:28.175Z,18.15
2018-05-16T11:31:59.305Z,21.43
2018-05-16T11:34:29.031Z,20.20
2018-05-16T11:36:59.055Z,20.80
2018-05-16T11:39:28.116Z,20.08
2018-05-16T11:41:59.522Z,22.52
2018-05-16T11:44:29.442Z,20.45
2018-05-16T11:47:01.047Z,30.50
2018-05-16T11:49:30.765Z,22.45
2018-05-16T11:52:02.150Z,21.42
2018-05-16T11:54:33.930Z,19.40
2018-05-16T11:57:05.245Z,25.52
2018-05-16T11:59:36.686Z,18.83
2018-05-16T12:02:05.781Z,21.73
2018-05-16T12:04:36.428Z,16.95
2018-05-16T12:07:08.292Z,14.82
2018-05-16T12:09:38.176Z,17.20
2018-05-16T12:12:09.857Z,18.02
2018-05-16T12:14:41.652Z,20.10
2018-05-16T12:17:12.003Z,19.33
2018-05-16T12:19:41.839Z,20.60
2018-05-16T12:22:13.216Z,16.85
2018-05-16T12:24:44.623Z,12.00
2018-05-16T12:27:14.548Z,11.75
2018-05-16T12:29:45.655Z,11.57
2018-05-16T12:32:16.934Z,16.20
2018-05-16T12:34:46.086Z,8.15
2018-05-16T12:37:17.455Z,13.73
2018-05-16T12:39:48.896Z,29.17
2018-05-16T12:42:20.396Z,6.90
2018-05-16T12:44:51.034Z,25.00
2018-05-16T12:47:20.941Z,13.25
2018-05-16T12:49:52.841Z,19.42
2018-05-16T12:52:22.719Z,13.88
2018-05-16T12:54:54.155Z,12.32
2018-05-16T12:57:24.754Z,16.08
2018-05-16T12:59:53.809Z,17.50
2018-05-16T13:02:23.704Z,17.27
2018-05-16T13:04:53.607Z,16.05
2018-05-16T13:07:23.542Z,21.02
2018-05-16T13:09:54.765Z,19.52
2018-05-16T13:12:24.590Z,16.45
2018-05-16T13:14:56.012Z,19.27
2018-05-16T13:17:27.476Z,14.43
2018-05-16T13:19:58.846Z,23.12
2018-05-16T13:22:29.063Z,22.00
2018-05-16T13:24:59.049Z,20.35
2018-05-16T13:27:28.898Z,17.33
2018-05-16T13:30:00.352Z,19.98
2018-05-16T13:32:30.160Z,19.92
2018-05-16T13:35:00.083Z,19.25
2018-05-16T13:37:30.103Z,18.27
2018-05-16T13:39:59.314Z,20.73
2018-05-16T13:42:30.255Z,18.00
2018-05-16T13:45:00.173Z,13.95
2018-05-16T13:47:31.647Z,15.63
2018-05-16T13:50:01.578Z,18.67
2018-05-16T13:52:33.279Z,22.30
2018-05-16T13:55:04.550Z,24.37
2018-05-16T13:57:34.324Z,22.73
2018-05-16T14:00:04.449Z,14.40
2018-05-16T14:02:34.550Z,25.65
2018-05-16T14:05:06.484Z,24.12
2018-05-16T14:07:37.952Z,21.27
2018-05-16T14:10:09.421Z,16.05
2018-05-16T14:12:39.331Z,18.37
2018-05-16T14:15:09.258Z,22.87
2018-05-16T14:17:39.252Z,21.50
2018-05-16T14:20:10.520Z,25.95
2018-05-16T14:22:42.151Z,23.87
2018-05-16T14:25:13.565Z,26.45
2018-05-16T14:27:45.063Z,17.20
2018-05-16T14:30:16.855Z,23.55
2018-05-16T14:32:46.828Z,18.05
2018-05-16T14:35:16.719Z,15.57
2018-05-16T14:37:48.304Z,25.48
2018-05-16T14:40:17.389Z,19.08
2018-05-16T14:42:47.217Z,21.52
2018-05-16T14:45:18.295Z,15.68
2018-05-16T14:47:49.677Z,16.67
2018-05-16T14:50:19.613Z,24.23
2018-05-16T14:52:49.533Z,16.48
2018-05-16T14:55:19.446Z,15.05
2018-05-16T14:57:49.375Z,19.73
2018-05-16T15:00:20.467Z,14.43
2018-05-16T15:02:51.966Z,18.37
2018-05-16T15:05:23.039Z,20.77
2018-05-16T15:07:54.420Z,15.32
2018-05-16T15:10:23.200Z,19.92
2018-05-16T15:12:53.140Z,17.10
2018-05-16T15:15:23.584Z,15.05
2018-05-16T15:17:52.889Z,19.33
2018-05-16T15:20:21.947Z,21.65
2018-05-16T15:22:51.882Z,19.60
2018-05-16T15:25:23.330Z,14.98
2018-05-16T15:27:52.413Z,21.95
2018-05-16T15:30:23.321Z,13.90
2018-05-16T15:32:53.312Z,20.35
2018-05-16T15:35:24.826Z,16.83
2018-05-16T15:37:54.746Z,22.60
2018-05-16T15:40:26.276Z,16.55
2018-05-16T15:42:56.122Z,24.10
2018-05-16T15:45:26.021Z,21.27
2018-05-16T15:47:57.393Z,21.12
2018-05-16T15:50:27.206Z,11.43
2018-05-16T15:52:58.791Z,20.77
2018-05-16T15:55:28.738Z,23.00
2018-05-16T15:58:00.118Z,21.65
2018-05-16T16:00:31.584Z,27.35
2018-05-16T16:03:01.516Z,18.12
2018-05-16T16:05:31.391Z,15.23
2018-05-16T16:08:03.116Z,25.77
2018-05-16T16:10:34.543Z,21.98
2018-05-16T16:13:05.982Z,25.90
2018-05-16T16:15:37.616Z,12.93
2018-05-16T16:18:11.748Z,18.67
2018-05-16T16:20:43.028Z,15.23
2018-05-16T16:23:14.412Z,16.42
2018-05-16T16:25:44.452Z,18.85
2018-05-16T16:28:15.114Z,16.87
2018-05-16T16:30:45.119Z,16.40
2018-05-16T16:33:16.543Z,41.08
2018-05-16T16:35:46.544Z,24.52
2018-05-16T16:38:17.907Z,18.62
2018-05-16T16:40:49.267Z,17.50
2018-05-16T16:43:21.128Z,16.50
2018-05-16T16:45:51.044Z,19.30
2018-05-16T16:48:22.559Z,21.95
2018-05-16T16:50:53.921Z,18.45
2018-05-16T16:53:25.484Z,18.33
2018-05-16T16:55:57.442Z,21.10
2018-05-16T16:58:28.570Z,20.90
2018-05-16T17:01:00.061Z,24.15
2018-05-16T17:03:31.437Z,21.90
2018-05-16T17:06:02.078Z,15.70
2018-05-16T17:08:31.999Z,16.75
2018-05-16T17:11:03.397Z,14.57
2018-05-16T17:13:33.458Z,18.95
2018-05-16T17:16:03.444Z,14.00
2018-05-16T17:18:33.907Z,16.87
2018-05-16T17:21:05.890Z,17.90
2018-05-16T17:23:38.637Z,18.60
2018-05-16T17:26:11.771Z,14.10
2018-05-16T17:28:42.163Z,20.58
2018-05-16T17:31:13.485Z,14.05
2018-05-16T17:33:43.709Z,20.58
2018-05-16T17:36:13.362Z,8.10
2018-05-16T17:38:42.549Z,17.13
2018-05-16T17:41:14.229Z,11.43
2018-05-16T17:43:44.198Z,9.85
2018-05-16T17:46:14.903Z,20.52
2018-05-16T17:48:46.257Z,13.90
2018-05-16T17:51:17.620Z,17.65
2018-05-16T17:53:47.309Z,12.63
2018-05-16T17:56:17.129Z,16.63
2018-05-16T17:58:47.127Z,18.80
2018-05-16T18:01:18.617Z,24.07
2018-05-16T18:03:48.604Z,21.13
2018-05-16T18:06:18.512Z,21.90
2018-05-16T18:08:49.733Z,18.03
2018-05-16T18:11:21.552Z,24.87
2018-05-16T18:14:31.660Z,18.13
2018-05-16T18:17:29.497Z,10.07
2018-05-16T18:19:59.408Z,18.83
2018-05-16T18:22:32.223Z,16.62
2018-05-16T18:25:02.806Z,12.00
2018-05-16T18:27:33.683Z,14.40
2018-05-16T18:30:05.132Z,10.35
2018-05-16T18:32:35.547Z,15.13
2018-05-16T18:35:06.196Z,10.50
2018-05-16T18:37:37.603Z,18.70
2018-05-16T18:40:08.549Z,13.13
2018-05-16T18:42:38.410Z,16.13
2018-05-16T18:45:09.455Z,13.60
2018-05-16T18:47:41.698Z,17.60
2018-05-16T18:50:13.287Z,23.73
2018-05-16T18:52:44.675Z,15.60
2018-05-16T18:55:16.073Z,8.47
2018-05-16T18:57:46.433Z,10.43
2018-05-16T19:00:17.379Z,10.67
2018-05-16T19:02:49.559Z,20.97
2018-05-16T19:05:21.809Z,15.60
2018-05-16T19:07:51.663Z,16.23
2018-05-16T19:10:23.094Z,17.33
2018-05-16T19:12:53.110Z,7.07
2018-05-16T19:15:22.873Z,21.40
2018-05-16T19:17:54.921Z,23.00
2018-05-16T19:20:25.408Z,20.53
2018-05-16T19:22:56.910Z,15.70
2018-05-16T19:25:26.915Z,18.47
2018-05-16T19:27:57.020Z,11.53
2018-05-16T19:30:30.995Z,13.67
2018-05-16T19:33:01.618Z,10.53
2018-05-16T19:35:34.079Z,10.03
2018-05-16T19:38:03.973Z,17.60
2018-05-16T19:40:35.868Z,21.33
2018-05-16T19:43:07.933Z,10.90
2018-05-16T19:45:39.381Z,15.07
2018-05-16T19:48:10.770Z,16.40
2018-05-16T19:50:40.477Z,16.07
2018-05-16T19:53:11.887Z,7.67
2018-05-16T19:55:43.414Z,19.57
2018-05-16T19:58:14.854Z,18.43
2018-05-16T20:00:44.190Z,17.17
2018-05-16T20:03:15.071Z,8.57
2018-05-16T20:05:45.631Z,14.57
2018-05-16T20:08:15.175Z,15.17
2018-05-16T20:10:46.706Z,23.90
2018-05-16T20:13:16.330Z,13.40
2018-05-16T20:15:48.377Z,19.47
2018-05-16T20:18:20.569Z,15.43
2018-05-16T20:20:50.535Z,19.77
2018-05-16T20:23:22.160Z,20.40
2018-05-16T20:25:51.718Z,19.83
2018-05-16T20:28:23.212Z,16.10
2018-05-16T20:30:53.140Z,9.77
2018-05-16T20:33:24.370Z,16.60
2018-05-16T20:35:54.072Z,23.77
2018-05-16T20:38:24.599Z,17.90
2018-05-16T20:40:55.682Z,6.40
2018-05-16T20:43:26.861Z,22.37
2018-05-16T20:45:58.954Z,27.40
2018-05-16T20:48:29.516Z,22.63
2018-05-16T20:51:00.876Z,15.00
2018-05-16T20:53:32.190Z,5.63
2018-05-16T20:56:04.638Z,14.33
2018-05-16T20:58:34.599Z,20.40
2018-05-16T21:01:07.177Z,19.70
2018-05-16T21:03:37.717Z,10.73
2018-05-16T21:06:09.107Z,19.47
2018-05-16T21:08:39.135Z,20.53
2018-05-16T21:11:08.908Z,18.03
2018-05-16T21:13:40.367Z,17.93
2018-05-16T21:16:11.954Z,29.30
2018-05-16T21:18:44.197Z,20.40
2018-05-16T21:21:15.159Z,27.17
2018-05-16T21:23:46.863Z,18.77
2018-05-16T21:26:19.897Z,8.33
2018-05-16T21:28:50.900Z,23.38
2018-05-16T21:31:20.806Z,16.30
2018-05-16T21:33:51.464Z,21.87
2018-05-16T21:36:23.106Z,12.63
2018-05-16T21:38:54.362Z,18.87
2018-05-16T21:41:24.418Z,11.13
2018-05-16T21:43:55.622Z,17.20
2018-05-16T21:46:25.578Z,12.03
2018-05-16T21:48:58.941Z,14.80
2018-05-16T21:51:30.000Z,19.10
2018-05-16T21:54:03.285Z,23.27
2018-05-16T21:56:34.141Z,15.50
2018-05-16T21:59:04.121Z,18.77
2018-05-16T22:01:36.668Z,23.00
2018-05-16T22:04:07.995Z,21.77
2018-05-16T22:06:37.926Z,22.73
2018-05-16T22:09:09.531Z,16.97
2018-05-16T22:11:39.472Z,26.60
2018-05-16T22:14:11.356Z,28.93
2018-05-16T22:16:41.579Z,31.33
2018-05-16T22:19:13.786Z,19.00
2018-05-16T22:21:43.869Z,29.63
2018-05-16T22:24:13.931Z,16.60
2018-05-16T22:26:44.895Z,23.20
2018-05-16T22:29:16.829Z,21.47
2018-05-16T22:32:04.251Z,21.80
2018-05-16T22:34:52.907Z,31.23
2018-05-16T22:37:40.610Z,27.10
2018-05-16T22:40:27.851Z,29.50
2018-05-16T22:42:57.258Z,27.33
2018-05-16T22:45:27.691Z,30.87
2018-05-16T22:48:00.098Z,18.50
2018-05-16T22:50:32.138Z,27.67
2018-05-16T22:53:03.744Z,21.20
2018-05-16T22:55:33.729Z,26.27
2018-05-16T22:58:05.633Z,21.13
2018-05-16T23:00:41.724Z,22.17
2018-05-16T23:03:12.222Z,20.27
2018-05-16T23:05:43.737Z,30.63
2018-05-16T23:08:14.998Z,22.97
2018-05-16T23:10:45.093Z,28.03
2018-05-16T23:13:15.052Z,22.00
2018-05-16T23:15:45.546Z,20.43
2018-05-16T23:18:17.359Z,21.33
2018-05-16T23:20:48.622Z,18.13
2018-05-16T23:23:20.181Z,22.33
2018-05-16T23:25:51.937Z,28.63
2018-05-16T23:28:23.973Z,22.70
2018-05-16T23:30:56.232Z,23.20
2018-05-16T23:33:27.379Z,24.33
2018-05-16T23:35:57.434Z,25.07
2018-05-16T23:38:28.912Z,27.30
2018-05-16T23:41:00.264Z,20.33
2018-05-16T23:43:30.292Z,23.90
2018-05-16T23:46:00.809Z,20.13
2018-05-16T23:48:32.191Z,23.03
2018-05-16T23:51:03.534Z,26.37
2018-05-16T23:53:34.080Z,23.57
2018-05-16T23:56:05.906Z,24.27
2018-05-16T23:58:37.801Z,30.47
